sensor_id;sensor_type;location;lat;lon;timestamp;pressure;altitude;pressure_sealevel;temperature;humidity
69707;BME280;56975;55.726;37.566;2023-08-01T00:00:00;99160.0;;;18.5;79.5
69707;BME280;56975;55.726;37.566;2023-08-01T00:05:00;99150.0;;;18.4;80.2
69707;BME280;56975;55.726;37.566;2023-08-01T00:10:00;99160.0;;;18.4;80.1
69707;BME280;56975;55.726;37.566;2023-08-01T00:15:00;99160.0;;;18.3;80.3
69707;BME280;56975;55.726;37.566;2023-08-01T00:20:01;99170.0;;;18.3;80.8
69707;BME280;56975;55.726;37.566;2023-08-01T00:25:00;99160.0;;;18.2;81.1
69707;BME280;56975;55.726;37.566;2023-08-01T00:30:00;99160.0;;;18.1;81.4
69707;BME280;56975;55.726;37.566;2023-08-01T00:35:00;99160.0;;;18.1;81.8
69707;BME280;56975;55.726;37.566;2023-08-01T00:40:00;99160.0;;;18.0;82.4
69707;BME280;56975;55.726;37.566;2023-08-01T00:45:00;99170.0;;;18.0;82.5
69707;BME280;56975;55.726;37.566;2023-08-01T00:50:00;99170.0;;;18.0;82.9
69707;BME280;56975;55.726;37.566;2023-08-01T00:55:00;99170.0;;;18.0;82.9
69707;BME280;56975;55.726;37.566;2023-08-01T01:00:00;99170.0;;;17.9;83.1
69707;BME280;56975;55.726;37.566;2023-08-01T01:05:01;99170.0;;;17.9;83.4
69707;BME280;56975;55.726;37.566;2023-08-01T01:10:00;99170.0;;;17.8;83.9
69707;BME280;56975;55.726;37.566;2023-08-01T01:15:00;99180.0;;;17.8;84.4
69707;BME280;56975;55.726;37.566;2023-08-01T01:20:00;99180.0;;;17.8;84.2
69707;BME280;56975;55.726;37.566;2023-08-01T01:25:01;99180.0;;;17.8;84.4
69707;BME280;56975;55.726;37.566;2023-08-01T01:30:00;99170.0;;;17.8;84.4
69707;BME280;56975;55.726;37.566;2023-08-01T01:35:01;99180.0;;;17.7;85.0
69707;BME280;56975;55.726;37.566;2023-08-01T01:40:00;99170.0;;;17.7;85.3
69707;BME280;56975;55.726;37.566;2023-08-01T01:45:00;99180.0;;;17.7;85.8
69707;BME280;56975;55.726;37.566;2023-08-01T01:50:00;99170.0;;;17.6;87.3
69707;BME280;56975;55.726;37.566;2023-08-01T01:55:00;99180.0;;;17.7;87.3
69707;BME280;56975;55.726;37.566;2023-08-01T02:00:00;99180.0;;;17.7;87.8
69707;BME280;56975;55.726;37.566;2023-08-01T02:05:00;99180.0;;;17.6;88.3
69707;BME280;56975;55.726;37.566;2023-08-01T02:10:00;99180.0;;;17.6;88.2
69707;BME280;56975;55.726;37.566;2023-08-01T02:15:00;99180.0;;;17.7;87.6
69707;BME280;56975;55.726;37.566;2023-08-01T02:20:00;99180.0;;;17.7;87.6
69707;BME280;56975;55.726;37.566;2023-08-01T02:25:00;99180.0;;;17.8;87.3
69707;BME280;56975;55.726;37.566;2023-08-01T02:30:00;99170.0;;;17.8;87.0
69707;BME280;56975;55.726;37.566;2023-08-01T02:35:00;99180.0;;;17.9;86.6
69707;BME280;56975;55.726;37.566;2023-08-01T02:40:02;99180.0;;;18.0;86.5
69707;BME280;56975;55.726;37.566;2023-08-01T02:45:00;99180.0;;;18.1;86.7
69707;BME280;56975;55.726;37.566;2023-08-01T02:50:00;99180.0;;;18.2;86.6
69707;BME280;56975;55.726;37.566;2023-08-01T02:55:00;99180.0;;;18.3;85.5
69707;BME280;56975;55.726;37.566;2023-08-01T03:00:00;99180.0;;;18.5;84.7
69707;BME280;56975;55.726;37.566;2023-08-01T03:05:00;99180.0;;;18.6;83.8
69707;BME280;56975;55.726;37.566;2023-08-01T03:10:00;99190.0;;;18.7;83.1
69707;BME280;56975;55.726;37.566;2023-08-01T03:15:01;99200.0;;;18.8;83.2
69707;BME280;56975;55.726;37.566;2023-08-01T03:20:00;99200.0;;;19.0;82.5
69707;BME280;56975;55.726;37.566;2023-08-01T03:25:00;99200.0;;;19.1;81.3
69707;BME280;56975;55.726;37.566;2023-08-01T03:30:00;99200.0;;;19.3;79.8
69707;BME280;56975;55.726;37.566;2023-08-01T03:35:00;99210.0;;;19.5;78.5
69707;BME280;56975;55.726;37.566;2023-08-01T03:40:00;99210.0;;;19.7;77.5
69707;BME280;56975;55.726;37.566;2023-08-01T03:45:00;99210.0;;;19.9;76.4
69707;BME280;56975;55.726;37.566;2023-08-01T03:50:00;99220.0;;;20.1;75.5
69707;BME280;56975;55.726;37.566;2023-08-01T03:55:00;99220.0;;;20.3;74.8
69707;BME280;56975;55.726;37.566;2023-08-01T04:00:00;99220.0;;;20.5;73.9
69707;BME280;56975;55.726;37.566;2023-08-01T04:05:00;99230.0;;;20.6;72.8
69707;BME280;56975;55.726;37.566;2023-08-01T04:10:00;99230.0;;;20.8;71.5
69707;BME280;56975;55.726;37.566;2023-08-01T04:15:00;99230.0;;;20.9;70.9
69707;BME280;56975;55.726;37.566;2023-08-01T04:20:00;99230.0;;;21.0;71.0
69707;BME280;56975;55.726;37.566;2023-08-01T04:25:01;99230.0;;;21.1;70.9
69707;BME280;56975;55.726;37.566;2023-08-01T04:30:00;99230.0;;;21.2;70.0
69707;BME280;56975;55.726;37.566;2023-08-01T04:35:00;99230.0;;;21.4;69.1
69707;BME280;56975;55.726;37.566;2023-08-01T04:40:00;99230.0;;;21.6;68.3
69707;BME280;56975;55.726;37.566;2023-08-01T04:45:00;99230.0;;;21.7;67.8
69707;BME280;56975;55.726;37.566;2023-08-01T04:50:00;99220.0;;;22.0;66.2
69707;BME280;56975;55.726;37.566;2023-08-01T04:55:00;99230.0;;;22.1;65.4
69707;BME280;56975;55.726;37.566;2023-08-01T05:00:00;99240.0;;;22.3;64.5
69707;BME280;56975;55.726;37.566;2023-08-01T05:05:00;99230.0;;;22.3;63.8
69707;BME280;56975;55.726;37.566;2023-08-01T05:10:00;99230.0;;;22.5;62.6
69707;BME280;56975;55.726;37.566;2023-08-01T05:15:00;99230.0;;;22.6;62.5
69707;BME280;56975;55.726;37.566;2023-08-01T05:20:00;99240.0;;;22.9;61.5
69707;BME280;56975;55.726;37.566;2023-08-01T05:25:00;99250.0;;;23.0;61.3
69707;BME280;56975;55.726;37.566;2023-08-01T05:30:00;99240.0;;;23.1;59.8
69707;BME280;56975;55.726;37.566;2023-08-01T05:35:00;99240.0;;;23.6;57.2
69707;BME280;56975;55.726;37.566;2023-08-01T05:40:02;99250.0;;;23.8;56.8
69707;BME280;56975;55.726;37.566;2023-08-01T05:45:00;99250.0;;;23.6;56.2
69707;BME280;56975;55.726;37.566;2023-08-01T05:50:00;99250.0;;;23.9;56.7
69707;BME280;56975;55.726;37.566;2023-08-01T05:55:00;99260.0;;;23.9;55.8
69707;BME280;56975;55.726;37.566;2023-08-01T06:00:00;99260.0;;;23.9;56.8
69707;BME280;56975;55.726;37.566;2023-08-01T06:05:00;99270.0;;;24.2;54.5
69707;BME280;56975;55.726;37.566;2023-08-01T06:10:00;99260.0;;;24.2;52.5
69707;BME280;56975;55.726;37.566;2023-08-01T06:15:00;99270.0;;;24.1;53.5
69707;BME280;56975;55.726;37.566;2023-08-01T06:20:00;99270.0;;;24.2;53.0
69707;BME280;56975;55.726;37.566;2023-08-01T06:25:00;99270.0;;;24.2;52.8
69707;BME280;56975;55.726;37.566;2023-08-01T06:30:01;99260.0;;;24.0;52.8
69707;BME280;56975;55.726;37.566;2023-08-01T06:35:00;99280.0;;;24.1;52.6
69707;BME280;56975;55.726;37.566;2023-08-01T06:40:01;99270.0;;;24.2;51.7
69707;BME280;56975;55.726;37.566;2023-08-01T06:45:00;99270.0;;;24.1;52.6
69707;BME280;56975;55.726;37.566;2023-08-01T06:50:00;99270.0;;;24.1;51.9
69707;BME280;56975;55.726;37.566;2023-08-01T06:55:00;99270.0;;;24.1;51.4
69707;BME280;56975;55.726;37.566;2023-08-01T07:00:00;99270.0;;;24.1;51.7
69707;BME280;56975;55.726;37.566;2023-08-01T07:05:00;99270.0;;;24.1;51.2
69707;BME280;56975;55.726;37.566;2023-08-01T07:10:00;99260.0;;;24.0;51.3
69707;BME280;56975;55.726;37.566;2023-08-01T07:15:01;99270.0;;;24.0;51.1
69707;BME280;56975;55.726;37.566;2023-08-01T07:20:00;99270.0;;;24.1;51.0
69707;BME280;56975;55.726;37.566;2023-08-01T07:25:00;99270.0;;;24.2;51.2
69707;BME280;56975;55.726;37.566;2023-08-01T07:30:00;99270.0;;;24.4;50.2
69707;BME280;56975;55.726;37.566;2023-08-01T07:35:00;99270.0;;;24.6;50.3
69707;BME280;56975;55.726;37.566;2023-08-01T07:40:00;99270.0;;;24.8;49.6
69707;BME280;56975;55.726;37.566;2023-08-01T07:45:00;99270.0;;;24.9;49.0
69707;BME280;56975;55.726;37.566;2023-08-01T07:50:00;99270.0;;;25.1;48.9
69707;BME280;56975;55.726;37.566;2023-08-01T07:55:00;99270.0;;;25.3;48.9
69707;BME280;56975;55.726;37.566;2023-08-01T08:00:00;99270.0;;;25.4;48.0
69707;BME280;56975;55.726;37.566;2023-08-01T08:05:00;99270.0;;;25.5;48.1
69707;BME280;56975;55.726;37.566;2023-08-01T08:10:00;99270.0;;;25.5;47.3
69707;BME280;56975;55.726;37.566;2023-08-01T08:15:00;99260.0;;;25.6;47.0
69707;BME280;56975;55.726;37.566;2023-08-01T08:20:00;99260.0;;;25.6;47.3
69707;BME280;56975;55.726;37.566;2023-08-01T08:25:00;99260.0;;;25.9;47.2
69707;BME280;56975;55.726;37.566;2023-08-01T08:30:00;99270.0;;;26.1;46.1
69707;BME280;56975;55.726;37.566;2023-08-01T08:35:00;99260.0;;;26.3;45.4
69707;BME280;56975;55.726;37.566;2023-08-01T08:40:00;99260.0;;;26.1;45.8
69707;BME280;56975;55.726;37.566;2023-08-01T08:45:01;99250.0;;;26.2;45.7
69707;BME280;56975;55.726;37.566;2023-08-01T08:50:00;99250.0;;;26.3;45.1
69707;BME280;56975;55.726;37.566;2023-08-01T08:55:01;99250.0;;;26.6;45.5
69707;BME280;56975;55.726;37.566;2023-08-01T09:00:02;99240.0;;;27.5;46.6
69707;BME280;56975;55.726;37.566;2023-08-01T09:05:00;99240.0;;;29.0;43.2
69707;BME280;56975;55.726;37.566;2023-08-01T09:10:00;99250.0;;;30.9;37.5
69707;BME280;56975;55.726;37.566;2023-08-01T09:15:00;99250.0;;;30.3;35.4
69707;BME280;56975;55.726;37.566;2023-08-01T09:20:06;99240.0;;;29.1;36.7
69707;BME280;56975;55.726;37.566;2023-08-01T09:25:00;99240.0;;;30.3;35.4
69707;BME280;56975;55.726;37.566;2023-08-01T09:30:04;99240.0;;;30.3;34.9
69707;BME280;56975;55.726;37.566;2023-08-01T09:35:00;99230.0;;;29.8;35.9
69707;BME280;56975;55.726;37.566;2023-08-01T09:40:00;99230.0;;;30.6;34.7
69707;BME280;56975;55.726;37.566;2023-08-01T09:45:00;99240.0;;;31.1;33.5
69707;BME280;56975;55.726;37.566;2023-08-01T09:50:00;99240.0;;;28.3;38.1
69707;BME280;56975;55.726;37.566;2023-08-01T09:55:00;99230.0;;;27.8;39.7
69707;BME280;56975;55.726;37.566;2023-08-01T10:00:00;99230.0;;;28.9;36.7
69707;BME280;56975;55.726;37.566;2023-08-01T10:05:00;99230.0;;;29.9;35.5
69707;BME280;56975;55.726;37.566;2023-08-01T10:10:01;99220.0;;;30.7;35.0
69707;BME280;56975;55.726;37.566;2023-08-01T10:15:00;99230.0;;;30.3;35.7
69707;BME280;56975;55.726;37.566;2023-08-01T10:20:00;99220.0;;;32.7;32.0
69707;BME280;56975;55.726;37.566;2023-08-01T10:25:00;99220.0;;;34.1;30.4
69707;BME280;56975;55.726;37.566;2023-08-01T10:30:01;99220.0;;;32.2;31.6
69707;BME280;56975;55.726;37.566;2023-08-01T10:35:01;99200.0;;;31.8;32.3
69707;BME280;56975;55.726;37.566;2023-08-01T10:40:00;99210.0;;;32.3;32.2
69707;BME280;56975;55.726;37.566;2023-08-01T10:45:00;99210.0;;;32.3;32.1
69707;BME280;56975;55.726;37.566;2023-08-01T10:50:00;99200.0;;;31.2;34.4
69707;BME280;56975;55.726;37.566;2023-08-01T10:55:01;99200.0;;;30.3;35.4
69707;BME280;56975;55.726;37.566;2023-08-01T11:00:00;99210.0;;;33.2;31.4
69707;BME280;56975;55.726;37.566;2023-08-01T11:05:02;99200.0;;;31.5;34.2
69707;BME280;56975;55.726;37.566;2023-08-01T11:10:03;99200.0;;;32.0;33.1
69707;BME280;56975;55.726;37.566;2023-08-01T11:15:00;99200.0;;;33.4;31.6
69707;BME280;56975;55.726;37.566;2023-08-01T11:20:01;99210.0;;;31.8;32.0
69707;BME280;56975;55.726;37.566;2023-08-01T11:25:00;99210.0;;;32.9;29.7
69707;BME280;56975;55.726;37.566;2023-08-01T11:30:00;99190.0;;;31.0;32.9
69707;BME280;56975;55.726;37.566;2023-08-01T11:35:01;99190.0;;;33.4;29.0
69707;BME280;56975;55.726;37.566;2023-08-01T11:40:00;99190.0;;;33.2;29.4
69707;BME280;56975;55.726;37.566;2023-08-01T11:45:29;99200.0;;;33.1;30.1
69707;BME280;56975;55.726;37.566;2023-08-01T11:50:00;99190.0;;;30.7;33.3
69707;BME280;56975;55.726;37.566;2023-08-01T11:55:00;99190.0;;;32.2;30.3
69707;BME280;56975;55.726;37.566;2023-08-01T12:00:00;99180.0;;;31.5;31.5
69707;BME280;56975;55.726;37.566;2023-08-01T12:05:00;99180.0;;;31.4;32.5
69707;BME280;56975;55.726;37.566;2023-08-01T12:10:01;99180.0;;;30.2;34.9
69707;BME280;56975;55.726;37.566;2023-08-01T12:15:00;99160.0;;;30.4;34.8
69707;BME280;56975;55.726;37.566;2023-08-01T12:20:00;99160.0;;;31.3;33.6
69707;BME280;56975;55.726;37.566;2023-08-01T12:25:00;99150.0;;;32.4;33.0
69707;BME280;56975;55.726;37.566;2023-08-01T12:30:00;99150.0;;;32.1;33.3
69707;BME280;56975;55.726;37.566;2023-08-01T12:35:00;99160.0;;;32.1;33.4
69707;BME280;56975;55.726;37.566;2023-08-01T12:40:00;99160.0;;;32.9;31.9
69707;BME280;56975;55.726;37.566;2023-08-01T12:45:00;99150.0;;;32.0;33.0
69707;BME280;56975;55.726;37.566;2023-08-01T12:50:00;99150.0;;;30.2;35.5
69707;BME280;56975;55.726;37.566;2023-08-01T12:55:00;99150.0;;;32.2;33.0
69707;BME280;56975;55.726;37.566;2023-08-01T13:00:00;99150.0;;;30.5;35.6
69707;BME280;56975;55.726;37.566;2023-08-01T13:05:00;99140.0;;;29.3;38.2
69707;BME280;56975;55.726;37.566;2023-08-01T13:10:00;99140.0;;;30.3;36.8
69707;BME280;56975;55.726;37.566;2023-08-01T13:15:00;99140.0;;;29.5;38.0
69707;BME280;56975;55.726;37.566;2023-08-01T13:20:00;99130.0;;;29.1;38.6
69707;BME280;56975;55.726;37.566;2023-08-01T13:25:00;99130.0;;;28.5;39.8
69707;BME280;56975;55.726;37.566;2023-08-01T13:30:00;99130.0;;;28.8;39.2
69707;BME280;56975;55.726;37.566;2023-08-01T13:35:00;99130.0;;;28.3;39.4
69707;BME280;56975;55.726;37.566;2023-08-01T13:40:00;99120.0;;;29.0;38.5
69707;BME280;56975;55.726;37.566;2023-08-01T13:45:00;99130.0;;;28.7;39.3
69707;BME280;56975;55.726;37.566;2023-08-01T13:50:00;99130.0;;;28.2;40.5
69707;BME280;56975;55.726;37.566;2023-08-01T13:55:00;99130.0;;;28.2;40.8
69707;BME280;56975;55.726;37.566;2023-08-01T14:00:00;99130.0;;;28.9;39.8
69707;BME280;56975;55.726;37.566;2023-08-01T14:05:00;99140.0;;;28.1;40.8
69707;BME280;56975;55.726;37.566;2023-08-01T14:10:00;99130.0;;;28.0;41.4
69707;BME280;56975;55.726;37.566;2023-08-01T14:15:00;99130.0;;;27.8;41.5
69707;BME280;56975;55.726;37.566;2023-08-01T14:20:00;99120.0;;;27.4;42.7
69707;BME280;56975;55.726;37.566;2023-08-01T14:25:00;99120.0;;;27.8;42.4
69707;BME280;56975;55.726;37.566;2023-08-01T14:30:01;99130.0;;;27.7;42.5
69707;BME280;56975;55.726;37.566;2023-08-01T14:35:00;99120.0;;;27.6;42.9
69707;BME280;56975;55.726;37.566;2023-08-01T14:40:00;99120.0;;;27.6;43.0
69707;BME280;56975;55.726;37.566;2023-08-01T14:45:00;99120.0;;;28.1;41.7
69707;BME280;56975;55.726;37.566;2023-08-01T14:50:01;99120.0;;;27.4;43.0
69707;BME280;56975;55.726;37.566;2023-08-01T14:55:00;99110.0;;;27.0;43.5
69707;BME280;56975;55.726;37.566;2023-08-01T15:00:00;99110.0;;;27.2;42.8
69707;BME280;56975;55.726;37.566;2023-08-01T15:05:00;99110.0;;;27.0;43.7
69707;BME280;56975;55.726;37.566;2023-08-01T15:10:00;99110.0;;;26.7;44.1
69707;BME280;56975;55.726;37.566;2023-08-01T15:15:00;99120.0;;;26.8;44.4
69707;BME280;56975;55.726;37.566;2023-08-01T15:20:01;99110.0;;;26.8;45.1
69707;BME280;56975;55.726;37.566;2023-08-01T15:25:00;99110.0;;;26.5;46.1
69707;BME280;56975;55.726;37.566;2023-08-01T15:30:00;99110.0;;;26.0;47.3
69707;BME280;56975;55.726;37.566;2023-08-01T15:35:00;99110.0;;;26.2;47.4
69707;BME280;56975;55.726;37.566;2023-08-01T15:40:00;99130.0;;;25.9;48.6
69707;BME280;56975;55.726;37.566;2023-08-01T15:45:00;99120.0;;;25.7;49.4
69707;BME280;56975;55.726;37.566;2023-08-01T15:50:00;99130.0;;;25.6;50.1
69707;BME280;56975;55.726;37.566;2023-08-01T15:55:00;99140.0;;;26.0;49.1
69707;BME280;56975;55.726;37.566;2023-08-01T16:00:00;99140.0;;;25.7;50.2
69707;BME280;56975;55.726;37.566;2023-08-01T16:05:00;99140.0;;;25.6;51.0
69707;BME280;56975;55.726;37.566;2023-08-01T16:10:00;99140.0;;;25.3;51.6
69707;BME280;56975;55.726;37.566;2023-08-01T16:15:00;99160.0;;;25.6;51.0
69707;BME280;56975;55.726;37.566;2023-08-01T16:20:00;99150.0;;;25.5;51.1
69707;BME280;56975;55.726;37.566;2023-08-01T16:25:00;99150.0;;;25.2;51.6
69707;BME280;56975;55.726;37.566;2023-08-01T16:30:00;99150.0;;;25.7;50.6
69707;BME280;56975;55.726;37.566;2023-08-01T16:35:00;99150.0;;;25.6;50.5
69707;BME280;56975;55.726;37.566;2023-08-01T16:40:00;99150.0;;;25.0;51.9
69707;BME280;56975;55.726;37.566;2023-08-01T16:45:00;99150.0;;;25.1;51.8
69707;BME280;56975;55.726;37.566;2023-08-01T16:50:00;99140.0;;;25.1;51.9
69707;BME280;56975;55.726;37.566;2023-08-01T16:55:00;99140.0;;;24.9;52.3
69707;BME280;56975;55.726;37.566;2023-08-01T17:00:00;99140.0;;;25.0;52.3
69707;BME280;56975;55.726;37.566;2023-08-01T17:05:00;99140.0;;;25.1;52.2
69707;BME280;56975;55.726;37.566;2023-08-01T17:10:01;99140.0;;;24.8;54.0
69707;BME280;56975;55.726;37.566;2023-08-01T17:15:00;99150.0;;;24.7;54.7
69707;BME280;56975;55.726;37.566;2023-08-01T17:20:00;99170.0;;;24.5;56.2
69707;BME280;56975;55.726;37.566;2023-08-01T17:25:00;99180.0;;;24.3;57.2
69707;BME280;56975;55.726;37.566;2023-08-01T17:30:01;99180.0;;;24.1;58.2
69707;BME280;56975;55.726;37.566;2023-08-01T17:35:00;99210.0;;;23.9;58.8
69707;BME280;56975;55.726;37.566;2023-08-01T17:40:00;99210.0;;;23.9;58.1
69707;BME280;56975;55.726;37.566;2023-08-01T17:45:00;99210.0;;;23.7;57.5
69707;BME280;56975;55.726;37.566;2023-08-01T17:50:00;99210.0;;;23.6;56.9
69707;BME280;56975;55.726;37.566;2023-08-01T17:55:00;99220.0;;;23.6;57.0
69707;BME280;56975;55.726;37.566;2023-08-01T18:00:00;99220.0;;;23.3;57.2
69707;BME280;56975;55.726;37.566;2023-08-01T18:05:00;99220.0;;;23.2;58.0
69707;BME280;56975;55.726;37.566;2023-08-01T18:10:00;99230.0;;;23.2;58.5
69707;BME280;56975;55.726;37.566;2023-08-01T18:15:00;99210.0;;;23.1;59.3
69707;BME280;56975;55.726;37.566;2023-08-01T18:20:00;99210.0;;;23.0;59.7
69707;BME280;56975;55.726;37.566;2023-08-01T18:25:00;99210.0;;;23.0;60.3
69707;BME280;56975;55.726;37.566;2023-08-01T18:30:00;99210.0;;;22.9;61.5
69707;BME280;56975;55.726;37.566;2023-08-01T18:35:00;99220.0;;;22.8;62.6
69707;BME280;56975;55.726;37.566;2023-08-01T18:40:00;99210.0;;;22.7;63.8
69707;BME280;56975;55.726;37.566;2023-08-01T18:45:00;99210.0;;;22.6;65.0
69707;BME280;56975;55.726;37.566;2023-08-01T18:50:00;99210.0;;;22.6;65.1
69707;BME280;56975;55.726;37.566;2023-08-01T18:55:00;99210.0;;;22.4;66.0
69707;BME280;56975;55.726;37.566;2023-08-01T19:00:00;99210.0;;;22.5;66.1
69707;BME280;56975;55.726;37.566;2023-08-01T19:05:04;99210.0;;;22.3;66.9
69707;BME280;56975;55.726;37.566;2023-08-01T19:10:01;99210.0;;;22.3;67.2
69707;BME280;56975;55.726;37.566;2023-08-01T19:15:00;99210.0;;;22.1;68.3
69707;BME280;56975;55.726;37.566;2023-08-01T19:20:00;99220.0;;;22.1;69.0
69707;BME280;56975;55.726;37.566;2023-08-01T19:25:00;99220.0;;;22.1;69.5
69707;BME280;56975;55.726;37.566;2023-08-01T19:30:01;99210.0;;;21.9;71.0
69707;BME280;56975;55.726;37.566;2023-08-01T19:35:01;99220.0;;;21.9;71.8
69707;BME280;56975;55.726;37.566;2023-08-01T19:40:00;99210.0;;;21.8;72.6
69707;BME280;56975;55.726;37.566;2023-08-01T19:45:00;99220.0;;;21.8;73.2
69707;BME280;56975;55.726;37.566;2023-08-01T19:50:00;99220.0;;;21.7;73.9
69707;BME280;56975;55.726;37.566;2023-08-01T19:55:00;99220.0;;;21.7;74.2
69707;BME280;56975;55.726;37.566;2023-08-01T20:00:00;99220.0;;;21.5;75.4
69707;BME280;56975;55.726;37.566;2023-08-01T20:05:00;99220.0;;;21.5;75.9
69707;BME280;56975;55.726;37.566;2023-08-01T20:10:00;99230.0;;;21.5;76.1
69707;BME280;56975;55.726;37.566;2023-08-01T20:15:00;99230.0;;;21.4;76.2
69707;BME280;56975;55.726;37.566;2023-08-01T20:20:00;99240.0;;;21.4;75.9
69707;BME280;56975;55.726;37.566;2023-08-01T20:25:00;99240.0;;;21.3;76.4
69707;BME280;56975;55.726;37.566;2023-08-01T20:30:00;99250.0;;;21.3;76.6
69707;BME280;56975;55.726;37.566;2023-08-01T20:35:01;99250.0;;;21.3;76.9
69707;BME280;56975;55.726;37.566;2023-08-01T20:40:01;99250.0;;;21.4;75.7
69707;BME280;56975;55.726;37.566;2023-08-01T20:45:00;99260.0;;;21.3;76.0
69707;BME280;56975;55.726;37.566;2023-08-01T20:50:00;99250.0;;;21.2;77.7
69707;BME280;56975;55.726;37.566;2023-08-01T20:55:00;99250.0;;;21.1;78.0
69707;BME280;56975;55.726;37.566;2023-08-01T21:00:00;99250.0;;;21.0;78.9
69707;BME280;56975;55.726;37.566;2023-08-01T21:05:00;99250.0;;;21.0;78.8
69707;BME280;56975;55.726;37.566;2023-08-01T21:10:00;99260.0;;;21.1;78.8
69707;BME280;56975;55.726;37.566;2023-08-01T21:15:00;99250.0;;;20.9;79.7
69707;BME280;56975;55.726;37.566;2023-08-01T21:20:00;99250.0;;;20.9;80.1
69707;BME280;56975;55.726;37.566;2023-08-01T21:25:00;99250.0;;;20.9;80.4
69707;BME280;56975;55.726;37.566;2023-08-01T21:30:00;99250.0;;;20.9;79.2
69707;BME280;56975;55.726;37.566;2023-08-01T21:35:00;99240.0;;;20.9;79.5
69707;BME280;56975;55.726;37.566;2023-08-01T21:40:00;99240.0;;;20.7;81.1
69707;BME280;56975;55.726;37.566;2023-08-01T21:45:00;99260.0;;;20.8;79.9
69707;BME280;56975;55.726;37.566;2023-08-01T21:50:00;99250.0;;;20.6;81.6
69707;BME280;56975;55.726;37.566;2023-08-01T21:55:00;99250.0;;;20.5;82.8
69707;BME280;56975;55.726;37.566;2023-08-01T22:00:00;99240.0;;;20.5;83.2
69707;BME280;56975;55.726;37.566;2023-08-01T22:05:00;99250.0;;;20.5;82.8
69707;BME280;56975;55.726;37.566;2023-08-01T22:10:01;99250.0;;;20.5;83.2
69707;BME280;56975;55.726;37.566;2023-08-01T22:15:00;99250.0;;;20.4;84.5
69707;BME280;56975;55.726;37.566;2023-08-01T22:20:00;99250.0;;;20.4;83.9
69707;BME280;56975;55.726;37.566;2023-08-01T22:25:00;99260.0;;;20.3;85.4
69707;BME280;56975;55.726;37.566;2023-08-01T22:30:00;99250.0;;;20.3;85.8
69707;BME280;56975;55.726;37.566;2023-08-01T22:35:00;99260.0;;;20.2;87.1
69707;BME280;56975;55.726;37.566;2023-08-01T22:40:01;99260.0;;;20.2;86.9
69707;BME280;56975;55.726;37.566;2023-08-01T22:45:00;99260.0;;;20.2;87.0
69707;BME280;56975;55.726;37.566;2023-08-01T22:50:00;99250.0;;;20.2;85.4
69707;BME280;56975;55.726;37.566;2023-08-01T22:55:00;99260.0;;;20.2;85.1
69707;BME280;56975;55.726;37.566;2023-08-01T23:00:00;99260.0;;;20.1;84.9
69707;BME280;56975;55.726;37.566;2023-08-01T23:05:00;99260.0;;;20.1;86.8
69707;BME280;56975;55.726;37.566;2023-08-01T23:10:02;99260.0;;;20.0;86.1
69707;BME280;56975;55.726;37.566;2023-08-01T23:15:00;99250.0;;;20.0;86.4
69707;BME280;56975;55.726;37.566;2023-08-01T23:20:00;99250.0;;;20.0;85.5
69707;BME280;56975;55.726;37.566;2023-08-01T23:25:00;99260.0;;;19.9;87.3
69707;BME280;56975;55.726;37.566;2023-08-01T23:30:00;99250.0;;;19.7;90.3
69707;BME280;56975;55.726;37.566;2023-08-01T23:35:00;99250.0;;;19.7;91.7
69707;BME280;56975;55.726;37.566;2023-08-01T23:40:00;99250.0;;;19.6;92.3
69707;BME280;56975;55.726;37.566;2023-08-01T23:45:00;99250.0;;;19.6;92.9
69707;BME280;56975;55.726;37.566;2023-08-01T23:50:00;99250.0;;;19.7;91.8
69707;BME280;56975;55.726;37.566;2023-08-01T23:55:00;99240.0;;;19.6;92.5
